Terminal Aerodrome Forecast
Issued by NWS Portland, ME

Current Version | Previous Version | Text Only | Print | Product List | Glossary On
Versions: 1 2 3 4 5 6 7 8 9 10 11 12 13 14 15
057
FTUS41 KGYX 270524
TAFPWM
TAF
KPWM 270524Z 2706/2806 20006KT P6SM SCT050 BKN110
     FM271000 19005KT P6SM -SHRA SCT025 BKN050 OVC100
     FM271300 23006KT 4SM -SHRA BR BKN015
     FM271700 36006KT P6SM SCT030 BKN050 BKN100=

USA.gov is the U.S. government's official web portal to all federal, state and local government web resources and services.